Bei Facebook empfehlenBei Twitter postenGoogle plusPinterest

Das Wetter im Erzgebirge am 14.06.2017

Wetter und Klima am 14.06.2017 Holzhau im Erzgebirge (630m ü.NN)
Letzte gemessene Temperatur und Uhrzeit der Messung23:45:00 Uhr8.60 °C
Temperatur (Maximum / Höchstwert) und Uhrzeit der Messung16:00:00 Uhr22.60 °C
Temperatur (Minimum / Tiefstwert) und Uhrzeit der Messung05:15:004.70 °C
Errechneter Absolutwert der Temperaturschwankungen zwischen Tmin und Tmax des Tages17.90 K
Errechnete Tagesmitteltemperatur13.94271 °C
Gesamt - Niederschlag des Tages (in flüssiger Form)0.00 Liter / m²
Luftdruck (Maximum / Höchstwert) und Zeitpunkt der Messung10:15:00 Uhr1017.50 hPa
Luftdruck (Minimum / Tiefstwert) und Zeitpunkt der Messung20:30:00 Uhr1015.90 hPa
Errechneter Absolutwert der Luftdruckschwankungen des Tages1.60 hPa
Höchste gemessene Windgeschwindigkeit und Uhrzeit der Messung12:30:00 Uhr660.96 km/h
Errechnete Windhäufigkeit in Relation zu den Messwerten des Tages15.62500 %
Niedrigste Windkühle (Windchill) und Zeitpunkt der Messung05:15:00 Uhr4.70 °C
Taupunkt (Maximum / Höchstwert) und Uhrzeit der Messung08:00:00 Uhr12.00 °C
Taupunkt (Minimum / Tiefstwert) und Uhrzeit der Messung05:00:003.30 °C
Anzahl der automatisch eingelesenen Messwerte 96

Detaillierte Wetter- und Klima- Messwerte für den 14.06.2017 in Holzhau im Erzgebirge (630m ü.NN)
ZeitTemperaturLuftdruckRel. LuftfeuchteWindWindrichtungWindchillTaupunktNiederschlag l/m²
23:45:008.60 °C1016.20 hPa82.00 %5.70 °C 
23:30:008.80 °C1016.10 hPa82.00 %5.90 °C 
23:15:009.00 °C1016.10 hPa81.00 %5.90 °C 
23:00:009.30 °C1016.30 hPa79.00 %5.90 °C 
22:45:009.60 °C1016.40 hPa78.00 %6.00 °C 
22:30:009.80 °C1016.50 hPa76.00 %5.80 °C 
22:15:0010.20 °C1016.40 hPa74.00 %5.80 °C 
22:00:0010.80 °C1016.20 hPa71.00 %5.80 °C 
21:45:0011.60 °C1016.10 hPa69.00 %6.10 °C 
21:30:0012.60 °C1016.10 hPa66.00 %6.40 °C 
21:15:0013.70 °C1016.00 hPa64.00 %7.00 °C 
21:00:0014.80 °C1016.00 hPa62.00 %7.60 °C 
20:45:0015.90 °C1016.00 hPa59.00 %7.90 °C 
20:30:0016.80 °C1015.90 hPa57.00 %8.20 °C 
20:15:0017.40 °C1016.00 hPa56.00 %8.50 °C 
20:00:0018.20 °C1015.90 hPa54.00 %8.70 °C 
19:45:0018.90 °C1015.90 hPa53.00 %9.10 °C 
19:30:0019.50 °C1016.00 hPa52.00 %9.40 °C 
19:15:0019.90 °C1016.10 hPa50.00 %9.20 °C 
19:00:0020.10 °C1016.10 hPa50.00 %9.40 °C 
18:45:0020.60 °C1016.20 hPa49.00 %14.40 km/hSSO20.60 °C9.50 °C 
18:30:0021.30 °C1016.30 hPa49.00 %12.96 km/hWNW21.30 °C10.20 °C 
18:15:0021.50 °C1016.00 hPa49.00 %6.48 km/hNW21.50 °C10.30 °C 
18:00:0021.60 °C1016.40 hPa48.00 %9.00 km/hW21.60 °C10.10 °C 
17:45:0021.90 °C1016.60 hPa46.00 %9.80 °C 
17:30:0022.40 °C1016.70 hPa46.00 %10.20 °C 
17:15:0022.20 °C1016.60 hPa47.00 %10.40 °C 
17:00:0022.30 °C1016.60 hPa48.00 %10.80 °C 
16:45:0022.20 °C1016.60 hPa47.00 %10.40 °C 
16:30:0022.50 °C1016.80 hPa47.00 %10.60 °C 
16:15:0022.40 °C1016.90 hPa47.00 %10.50 °C 
16:00:0022.60 °C1016.90 hPa49.00 %11.40 °C 
15:45:0022.60 °C1016.70 hPa48.00 %11.00 °C 
15:30:0021.90 °C1017.00 hPa49.00 %10.70 °C 
15:15:0021.80 °C1016.90 hPa48.00 %37.44 km/hSO22.70 °C10.30 °C 
15:00:0021.60 °C1017.00 hPa50.00 %10.70 °C 
14:45:0021.60 °C1016.90 hPa51.00 %33.84 km/hSSW22.50 °C11.00 °C 
14:30:0020.90 °C1016.90 hPa52.00 %10.70 °C 
14:15:0021.10 °C1016.70 hPa52.00 %10.90 °C 
14:00:0020.70 °C1016.90 hPa53.00 %10.80 °C 
13:45:0020.20 °C1017.00 hPa53.00 %10.30 °C 
13:30:0020.30 °C1017.10 hPa56.00 %11.20 °C 
13:15:0019.70 °C1017.30 hPa53.00 %3.96 km/hWNW19.70 °C9.90 °C 
13:00:0019.90 °C1016.90 hPa56.00 %24.48 km/hNNW20.80 °C10.90 °C 
12:45:0019.60 °C1017.20 hPa56.00 %10.60 °C 
12:30:0019.20 °C1017.10 hPa58.00 %660.96 km/hW16.40 °C10.70 °C 
12:15:0019.20 °C1017.20 hPa55.00 %19.44 km/hNO20.10 °C9.90 °C 
12:00:0019.30 °C1017.20 hPa55.00 %19.44 km/hWNW20.20 °C10.00 °C 
11:45:0019.30 °C1017.40 hPa57.00 %5.04 km/hW19.30 °C10.60 °C 
11:30:0018.40 °C1017.40 hPa61.00 %16.92 km/hWNW18.40 °C10.70 °C 
11:15:0017.40 °C1017.30 hPa62.00 %10.10 °C 
11:00:0017.40 °C1017.20 hPa60.00 %33.84 km/hWNW17.50 °C9.60 °C 
10:45:0017.20 °C1017.20 hPa64.00 %10.30 °C 
10:30:0016.90 °C1017.40 hPa64.00 %10.10 °C 
10:15:0017.20 °C1017.50 hPa66.00 %12.96 km/hNW17.20 °C10.80 °C 
10:00:0016.40 °C1017.30 hPa67.00 %10.30 °C 
09:45:0015.40 °C1017.30 hPa72.00 %10.40 °C 
09:30:0015.10 °C1017.10 hPa72.00 %10.10 °C 
09:15:0014.30 °C1016.90 hPa75.00 %9.90 °C 
09:00:0013.90 °C1016.90 hPa74.00 %9.30 °C 
08:45:0014.30 °C1016.90 hPa73.00 %9.50 °C 
08:30:0015.20 °C1016.90 hPa73.00 %10.40 °C 
08:15:0016.20 °C1016.80 hPa75.00 %11.80 °C 
08:00:0015.00 °C1016.90 hPa82.00 %12.00 °C 
07:45:0012.30 °C1017.00 hPa90.00 %10.70 °C 
07:30:0010.90 °C1016.90 hPa91.00 %9.50 °C 
07:15:009.60 °C1016.80 hPa93.00 %8.50 °C 
07:00:008.40 °C1016.80 hPa93.00 %7.30 °C 
06:45:007.80 °C1016.70 hPa93.00 %6.70 °C 
06:30:006.90 °C1016.70 hPa93.00 %5.80 °C 
06:15:005.90 °C1016.70 hPa93.00 %4.90 °C 
06:00:005.20 °C1016.60 hPa92.00 %4.00 °C 
05:45:004.90 °C1016.30 hPa91.00 %3.60 °C 
05:30:004.80 °C1016.30 hPa91.00 %3.50 °C 
05:15:004.70 °C1016.30 hPa91.00 %3.40 °C 
05:00:004.80 °C1016.20 hPa90.00 %3.30 °C 
04:45:004.80 °C1016.10 hPa90.00 %3.30 °C 
04:30:004.80 °C1016.00 hPa90.00 %3.30 °C 
04:15:004.90 °C1016.00 hPa90.00 %3.40 °C 
04:00:005.00 °C1015.90 hPa89.00 %3.30 °C 
03:45:005.30 °C1016.00 hPa89.00 %3.60 °C 
03:30:005.50 °C1016.00 hPa89.00 %3.80 °C 
03:15:005.80 °C1016.20 hPa89.00 %4.10 °C 
03:00:006.00 °C1016.20 hPa89.00 %4.30 °C 
02:45:006.20 °C1016.00 hPa89.00 %4.50 °C 
02:30:006.30 °C1016.20 hPa89.00 %4.60 °C 
02:15:006.50 °C1016.40 hPa88.00 %4.70 °C 
02:00:006.60 °C1016.50 hPa88.00 %4.80 °C 
01:45:006.70 °C1016.50 hPa88.00 %4.90 °C 
01:30:006.90 °C1016.30 hPa88.00 %5.10 °C 
01:15:006.80 °C1016.30 hPa87.00 %4.80 °C 
01:00:006.80 °C1016.40 hPa87.00 %4.80 °C 
00:45:006.90 °C1016.20 hPa86.00 %4.70 °C 
00:30:007.10 °C1016.40 hPa85.00 %4.80 °C 
00:15:007.40 °C1016.30 hPa85.00 %5.00 °C 
00:00:007.80 °C1016.10 hPa84.00 %5.30 °C 

Permanenter Link zu dieser Seite: Wetter im Erzgebirge am 14.06.2017
Performance-Info: Die Erstellung der Seite / Statistik(en) / Tabelle(n) erforderte 5 Datenbankserver-Abfrage(n) und dauerte 103 Millisekunden. (Dieser Messwert ist von der Gesamt-Auslastung des Servers abhängig.)
Erzgebirge - Wetter | Erzgebirge - Wetter (Mobilgeräte) | Komplette Klimadatenbank